createdAt,value
2019-03-23T00:02:22.434Z,39.18
2019-03-23T00:07:28.648Z,38.00
2019-03-23T00:12:34.798Z,36.38
2019-03-23T00:17:40.651Z,35.15
2019-03-23T00:22:47.422Z,35.65
2019-03-23T00:27:53.235Z,35.52
2019-03-23T00:32:59.040Z,31.77
2019-03-23T00:38:04.966Z,32.65
2019-03-23T00:43:10.859Z,31.68
2019-03-23T00:48:16.664Z,30.17
2019-03-23T00:53:22.799Z,30.32
2019-03-23T00:58:29.598Z,28.32
2019-03-23T01:03:35.754Z,29.98
2019-03-23T01:08:42.107Z,28.70
2019-03-23T01:13:48.215Z,30.27
2019-03-23T01:18:54.234Z,36.50
2019-03-23T01:24:00.025Z,36.88
2019-03-23T01:29:05.819Z,40.78
2019-03-23T01:34:14.061Z,41.05
2019-03-23T01:39:19.863Z,34.18
2019-03-23T01:44:25.666Z,35.15
2019-03-23T01:49:32.565Z,41.53
2019-03-23T01:54:38.379Z,41.92
2019-03-23T01:59:44.188Z,37.75
2019-03-23T02:04:50.854Z,37.98
2019-03-23T02:09:56.675Z,39.80
2019-03-23T02:15:03.656Z,40.43
2019-03-23T02:20:10.490Z,43.10
2019-03-23T02:25:16.723Z,36.80
2019-03-23T02:30:23.604Z,40.17
2019-03-23T02:35:29.424Z,38.80
2019-03-23T02:40:35.269Z,41.98
2019-03-23T02:45:41.067Z,40.40
2019-03-23T02:50:47.107Z,41.60
2019-03-23T02:55:53.325Z,41.15
2019-03-23T03:00:59.127Z,39.95
2019-03-23T03:06:04.958Z,44.05
2019-03-23T03:11:11.952Z,37.93
2019-03-23T03:16:18.602Z,34.27
2019-03-23T03:21:25.217Z,32.30
2019-03-23T03:26:31.390Z,37.55
2019-03-23T03:31:37.446Z,35.13
2019-03-23T03:36:44.635Z,34.67
2019-03-23T03:41:50.573Z,32.48
2019-03-23T03:46:56.367Z,31.10
2019-03-23T03:52:02.499Z,31.68
2019-03-23T03:57:09.195Z,32.75
2019-03-23T04:02:15.834Z,34.95
2019-03-23T04:07:21.721Z,31.62
2019-03-23T04:12:28.587Z,31.75
2019-03-23T04:17:34.630Z,32.42
2019-03-23T04:22:41.237Z,31.65
2019-03-23T04:27:47.238Z,32.70
2019-03-23T04:32:54.241Z,31.52
2019-03-23T04:37:59.929Z,26.63
2019-03-23T04:43:05.902Z,25.57
2019-03-23T04:48:11.666Z,23.85
2019-03-23T04:53:17.352Z,23.70
2019-03-23T04:58:23.370Z,23.90
2019-03-23T05:03:29.980Z,23.23
2019-03-23T05:08:36.238Z,24.12
2019-03-23T05:13:41.860Z,27.00
2019-03-23T05:18:47.471Z,23.55
2019-03-23T05:23:53.417Z,23.90
2019-03-23T05:28:59.964Z,20.70
2019-03-23T05:34:06.134Z,25.45
2019-03-23T05:39:11.811Z,22.62
2019-03-23T05:44:17.571Z,20.48
2019-03-23T05:49:23.638Z,24.35
2019-03-23T05:54:29.311Z,23.73
2019-03-23T05:59:35.010Z,23.25
2019-03-23T06:04:41.738Z,25.57
2019-03-23T06:09:47.435Z,22.58
2019-03-23T06:14:53.119Z,21.13
2019-03-23T06:19:58.945Z,20.92
2019-03-23T06:25:05.323Z,18.17
2019-03-23T06:30:11.482Z,19.15
2019-03-23T06:35:17.278Z,16.10
2019-03-23T06:40:23.788Z,17.30
2019-03-23T06:45:29.687Z,18.37
2019-03-23T06:50:36.214Z,18.12
2019-03-23T06:55:41.906Z,15.72
2019-03-23T07:00:48.077Z,15.75
2019-03-23T07:05:55.911Z,15.60
2019-03-23T07:11:01.707Z,13.30
2019-03-23T07:16:07.681Z,12.95
2019-03-23T07:21:14.523Z,13.05
2019-03-23T07:26:20.389Z,12.55
2019-03-23T07:31:26.663Z,10.93
2019-03-23T07:36:33.072Z,11.60
2019-03-23T07:41:39.381Z,12.47
2019-03-23T07:46:48.600Z,13.25
2019-03-23T07:51:54.569Z,9.98
2019-03-23T07:57:03.129Z,14.05
2019-03-23T08:02:09.250Z,11.15
2019-03-23T08:07:16.437Z,11.35
2019-03-23T08:12:26.400Z,10.32
2019-03-23T08:17:37.009Z,12.10
2019-03-23T08:22:45.435Z,12.58
2019-03-23T08:27:54.317Z,13.08
2019-03-23T08:33:00.752Z,13.25
2019-03-23T08:38:08.606Z,10.80
2019-03-23T08:43:19.150Z,11.75
2019-03-23T08:48:25.753Z,10.60
2019-03-23T08:53:31.694Z,12.58
2019-03-23T08:58:35.404Z,11.63
2019-03-23T09:03:51.793Z,12.58
2019-03-23T09:08:49.775Z,13.48
2019-03-23T09:13:58.029Z,12.10
2019-03-23T09:19:05.949Z,12.13
2019-03-23T09:24:13.112Z,11.57
2019-03-23T09:29:22.792Z,10.48
2019-03-23T09:34:33.706Z,10.63
2019-03-23T09:39:45.973Z,11.90
2019-03-23T09:44:56.455Z,13.72
2019-03-23T09:50:05.491Z,11.88
2019-03-23T09:55:13.875Z,14.98
2019-03-23T10:00:21.162Z,12.23
2019-03-23T10:05:28.689Z,12.20
2019-03-23T10:10:39.680Z,13.03
2019-03-23T10:15:48.218Z,14.18
2019-03-23T10:20:55.266Z,14.58
2019-03-23T10:26:04.056Z,15.32
2019-03-23T10:31:11.853Z,15.32
2019-03-23T10:36:19.901Z,12.73
2019-03-23T10:41:29.384Z,15.10
2019-03-23T10:46:41.426Z,16.40
2019-03-23T10:51:56.219Z,17.65
2019-03-23T10:57:03.453Z,16.87
2019-03-23T11:02:12.042Z,17.70
2019-03-23T11:07:24.865Z,18.85
2019-03-23T11:12:31.561Z,21.27
2019-03-23T11:17:40.370Z,19.25
2019-03-23T11:22:52.107Z,20.30
2019-03-23T11:28:00.744Z,21.73
2019-03-23T11:33:08.762Z,21.75
2019-03-23T11:38:17.204Z,19.05
2019-03-23T11:43:28.390Z,20.15
2019-03-23T11:48:38.283Z,20.08
2019-03-23T11:53:48.317Z,24.50
2019-03-23T11:58:56.148Z,21.30
2019-03-23T12:04:04.657Z,21.42
2019-03-23T12:09:13.940Z,23.83
2019-03-23T12:14:21.671Z,21.82
2019-03-23T12:19:32.628Z,20.75
2019-03-23T12:24:40.248Z,20.48
2019-03-23T12:29:48.144Z,21.62
2019-03-23T12:34:55.244Z,22.77
2019-03-23T12:40:04.796Z,20.50
2019-03-23T12:45:14.901Z,20.65
2019-03-23T12:50:20.762Z,19.85
2019-03-23T12:55:26.874Z,20.88
2019-03-23T13:00:32.707Z,17.87
2019-03-23T13:05:38.907Z,23.25
2019-03-23T13:10:44.713Z,21.82
2019-03-23T13:15:51.024Z,21.02
2019-03-23T13:20:56.799Z,21.45
2019-03-23T13:26:02.642Z,18.82
2019-03-23T13:31:08.443Z,19.95
2019-03-23T13:36:14.300Z,20.62
2019-03-23T13:41:20.035Z,21.87
2019-03-23T13:46:25.830Z,20.97
2019-03-23T13:51:31.657Z,19.23
2019-03-23T13:56:37.552Z,19.35
2019-03-23T14:01:43.362Z,20.55
2019-03-23T14:06:51.338Z,19.20
2019-03-23T14:11:59.618Z,20.60
2019-03-23T14:17:05.601Z,21.23
2019-03-23T14:22:15.667Z,19.23
2019-03-23T14:27:22.248Z,16.17
2019-03-23T14:32:29.454Z,51.53
2019-03-23T14:37:37.897Z,59.55
2019-03-23T14:42:50.544Z,62.93
2019-03-23T14:47:57.933Z,65.42
2019-03-23T14:53:07.920Z,78.33
2019-03-23T14:58:18.483Z,77.03
2019-03-23T15:03:27.854Z,80.53
2019-03-23T15:08:36.062Z,81.55
2019-03-23T15:13:47.666Z,75.72
2019-03-23T15:18:58.252Z,75.52
2019-03-23T15:24:10.886Z,76.30
2019-03-23T15:29:17.780Z,74.80
2019-03-23T15:34:28.961Z,75.10
2019-03-23T15:39:39.454Z,75.22
2019-03-23T15:45:03.733Z,77.40
2019-03-23T15:50:22.850Z,76.07
2019-03-23T15:55:33.190Z,75.70
2019-03-23T16:00:42.742Z,83.05
2019-03-23T16:05:53.259Z,81.12
2019-03-23T16:11:08.600Z,79.03
2019-03-23T16:16:19.434Z,77.78
2019-03-23T16:21:29.278Z,84.05
2019-03-23T16:26:35.296Z,85.83
2019-03-23T16:31:41.538Z,80.40
2019-03-23T16:36:49.196Z,79.72
2019-03-23T16:41:57.266Z,82.47
2019-03-23T16:47:03.644Z,80.50
2019-03-23T16:52:15.264Z,88.80
2019-03-23T16:57:22.871Z,80.22
2019-03-23T17:02:31.069Z,79.95
2019-03-23T17:07:37.396Z,76.60
2019-03-23T17:12:43.915Z,83.03
2019-03-23T17:17:49.729Z,85.38
2019-03-23T17:22:55.491Z,93.55
2019-03-23T17:28:01.265Z,85.72
2019-03-23T17:33:09.026Z,91.42
2019-03-23T17:38:15.923Z,88.37
2019-03-23T17:43:21.792Z,77.53
2019-03-23T17:48:27.473Z,76.65
2019-03-23T17:53:34.382Z,75.55
2019-03-23T17:58:40.155Z,77.62
2019-03-23T18:03:45.911Z,81.85
2019-03-23T18:08:51.676Z,82.15
2019-03-23T18:13:57.465Z,74.10
2019-03-23T18:19:03.227Z,73.90
2019-03-23T18:24:09.138Z,76.15
2019-03-23T18:29:15.963Z,77.87
2019-03-23T18:34:22.370Z,73.07
2019-03-23T18:39:29.396Z,77.62
2019-03-23T18:44:35.284Z,74.43
2019-03-23T18:49:41.049Z,82.02
2019-03-23T18:54:46.915Z,78.62
2019-03-23T18:59:52.990Z,75.30
2019-03-23T19:04:59.062Z,84.03
2019-03-23T19:10:05.604Z,82.92
2019-03-23T19:15:11.997Z,80.87
2019-03-23T19:20:18.209Z,81.75
2019-03-23T19:25:24.340Z,74.00
2019-03-23T19:30:30.208Z,75.50
2019-03-23T19:35:35.910Z,78.10
2019-03-23T19:40:43.255Z,76.65
2019-03-23T19:45:49.302Z,81.37
2019-03-23T19:50:55.035Z,82.20
2019-03-23T19:56:01.282Z,84.13
2019-03-23T20:01:07.269Z,87.33
2019-03-23T20:06:13.046Z,77.10
2019-03-23T20:11:18.826Z,87.47
2019-03-23T20:16:24.591Z,76.35
2019-03-23T20:21:30.279Z,79.30
2019-03-23T20:26:36.367Z,75.47
2019-03-23T20:31:42.692Z,84.40
2019-03-23T20:36:49.098Z,83.07
2019-03-23T20:41:54.994Z,86.50
2019-03-23T20:47:01.670Z,86.70
2019-03-23T20:52:08.659Z,90.97
2019-03-23T20:57:23.379Z,84.20
2019-03-23T21:02:22.168Z,108.70
2019-03-23T21:07:28.254Z,101.50
2019-03-23T21:12:34.387Z,101.72
2019-03-23T21:17:50.652Z,104.15
2019-03-23T21:22:47.822Z,104.10
2019-03-23T21:27:54.916Z,90.17
2019-03-23T21:33:01.036Z,96.97
2019-03-23T21:38:06.729Z,88.85
2019-03-23T21:43:12.495Z,86.78
2019-03-23T21:48:19.243Z,94.07
2019-03-23T21:53:26.442Z,114.47
2019-03-23T21:58:32.481Z,112.40
2019-03-23T22:03:38.279Z,116.93
2019-03-23T22:08:44.287Z,108.22
2019-03-23T22:13:50.082Z,93.85
2019-03-23T22:18:56.134Z,98.77
2019-03-23T22:24:01.821Z,81.32
2019-03-23T22:29:07.657Z,80.87
2019-03-23T22:34:13.462Z,85.53
2019-03-23T22:39:20.437Z,84.43
2019-03-23T22:44:27.373Z,85.45
2019-03-23T22:49:34.181Z,82.40
2019-03-23T22:54:40.394Z,82.00
2019-03-23T22:59:46.010Z,84.97
2019-03-23T23:04:52.431Z,78.02
2019-03-23T23:09:58.513Z,87.88
2019-03-23T23:15:05.155Z,87.72
2019-03-23T23:20:12.070Z,87.50
2019-03-23T23:25:17.820Z,91.83
2019-03-23T23:30:23.531Z,90.28
2019-03-23T23:35:29.526Z,79.60
2019-03-23T23:40:35.524Z,82.67
2019-03-23T23:45:41.280Z,84.70
2019-03-23T23:50:48.044Z,86.70
2019-03-23T23:55:53.806Z,89.65
